Time;durP1;ratioP1;P1;durP2;ratioP2;P2;SDS_P1;SDS_P2;PMS_P1;PMS_P2;Temp;Humidity;BMP_temperature;BMP_pressure;BME280_temperature;BME280_humidity;BME280_pressure;Samples;Min_cycle;Max_cycle;Signal;HPM_P1;HPM_P2
2021/12/09 00:01:03;;;;;;;0.50;0.50;;;1.90;99.90;;;;;;6290589;22;20016;-83
2021/12/09 00:03:34;;;;;;;0.93;0.90;;;1.10;99.90;;;;;;6290646;22;20016;-83
2021/12/09 00:06:00;;;;;;;0.73;0.73;;;1.00;99.90;;;;;;6290230;22;20012;-83
2021/12/09 00:08:28;;;;;;;1.38;0.80;;;1.10;99.90;;;;;;6290116;22;20353;-83
2021/12/09 00:10:56;;;;;;;0.80;0.80;;;1.00;99.90;;;;;;6315948;22;20023;-83
2021/12/09 00:13:22;;;;;;;4.93;1.02;;;1.00;99.90;;;;;;6290052;22;20388;-83
2021/12/09 00:15:49;;;;;;;1.25;0.85;;;1.00;99.90;;;;;;6289894;22;20077;-83
2021/12/09 00:18:14;;;;;;;2.75;2.38;;;1.10;99.90;;;;;;6159251;22;20012;-83
2021/12/09 00:20:41;;;;;;;2.33;1.35;;;1.10;99.90;;;;;;6315800;22;20449;-83
2021/12/09 00:23:07;;;;;;;1.52;1.10;;;1.10;99.90;;;;;;6316001;22;20005;-83
2021/12/09 00:25:33;;;;;;;1.42;1.30;;;1.20;99.90;;;;;;6315801;22;20012;-83
2021/12/09 00:27:59;;;;;;;2.55;1.77;;;1.20;99.90;;;;;;6289782;22;20024;-83
2021/12/09 00:30:25;;;;;;;2.05;1.65;;;1.20;99.90;;;;;;6290288;22;20346;-83
2021/12/09 00:32:52;;;;;;;0.80;0.80;;;1.20;99.90;;;;;;6289673;22;20016;-82
2021/12/09 00:35:19;;;;;;;1.77;1.63;;;1.20;99.90;;;;;;6289745;22;20013;-83
2021/12/09 00:38:03;;;;;;;9.80;2.10;;;1.20;99.90;;;;;;6264118;22;20052;-83
2021/12/09 00:40:29;;;;;;;1.80;1.20;;;1.20;99.90;;;;;;6184356;22;20046;-83
2021/12/09 00:42:54;;;;;;;5.22;2.58;;;1.20;99.90;;;;;;6289717;22;20013;-83
2021/12/09 00:45:21;;;;;;;1.75;1.40;;;1.20;99.90;;;;;;6290309;22;20044;-82
2021/12/09 00:47:47;;;;;;;1.08;0.98;;;1.20;99.90;;;;;;6290277;22;20020;-83
2021/12/09 00:50:13;;;;;;;0.80;0.80;;;1.20;99.90;;;;;;6263722;22;20020;-83
2021/12/09 00:52:39;;;;;;;4.60;1.13;;;1.20;99.90;;;;;;6289556;22;20016;-82
2021/12/09 00:55:07;;;;;;;2.65;1.48;;;1.20;99.90;;;;;;6159304;22;20016;-83
2021/12/09 00:57:32;;;;;;;1.90;1.25;;;1.20;99.90;;;;;;6289028;22;20023;-82
2021/12/09 00:59:59;;;;;;;1.73;1.35;;;1.20;99.90;;;;;;6289968;22;20017;-83
2021/12/09 01:02:25;;;;;;;1.48;1.13;;;1.10;99.90;;;;;;6289423;22;20013;-83
2021/12/09 01:04:50;;;;;;;1.27;0.95;;;1.10;99.90;;;;;;6289417;22;20019;-83
2021/12/09 01:07:16;;;;;;;4.45;3.25;;;1.10;99.90;;;;;;6289307;22;20335;-83
2021/12/09 01:09:42;;;;;;;1.50;1.05;;;1.10;99.90;;;;;;6315883;22;20021;-83
2021/12/09 01:12:08;;;;;;;0.73;0.73;;;1.10;99.90;;;;;;6159142;22;20013;-83
2021/12/09 01:14:37;;;;;;;0.80;0.80;;;1.10;99.90;;;;;;6159263;22;20021;-83
2021/12/09 01:17:05;;;;;;;0.40;0.40;;;1.10;99.90;;;;;;6135096;23;20095;-83
2021/12/09 01:19:31;;;;;;;0.70;0.70;;;1.10;99.90;;;;;;6289419;22;20043;-83
2021/12/09 01:21:56;;;;;;;2.05;0.77;;;1.10;99.90;;;;;;6289325;22;20020;-83
2021/12/09 01:24:22;;;;;;;0.98;0.95;;;1.10;99.90;;;;;;6289387;22;20345;-83
2021/12/09 01:26:49;;;;;;;0.77;0.70;;;1.00;99.90;;;;;;6289115;22;20142;-83
2021/12/09 01:29:19;;;;;;;1.60;1.15;;;1.00;99.90;;;;;;6315341;22;20327;-83
2021/12/09 01:31:59;;;;;;;2.85;1.58;;;1.00;99.90;;;;;;6316208;22;20016;-82
2021/12/09 01:34:25;;;;;;;2.25;1.58;;;0.90;99.90;;;;;;6183929;22;20410;-83
2021/12/09 01:36:50;;;;;;;0.93;0.75;;;1.00;99.90;;;;;;6289406;22;20021;-83
2021/12/09 01:39:16;;;;;;;1.38;1.27;;;1.00;99.90;;;;;;6315136;22;20017;-82
2021/12/09 01:41:43;;;;;;;0.63;0.63;;;0.90;99.90;;;;;;6289068;22;20015;-83
2021/12/09 01:44:08;;;;;;;1.05;0.98;;;0.90;99.90;;;;;;6289281;22;20024;-83
2021/12/09 01:46:34;;;;;;;0.90;0.55;;;1.00;99.90;;;;;;6288796;22;20017;-83
2021/12/09 01:49:00;;;;;;;0.65;0.52;;;1.00;99.90;;;;;;6289143;22;20036;-83
2021/12/09 01:51:25;;;;;;;1.05;0.95;;;0.90;99.90;;;;;;6288983;22;20043;-83
2021/12/09 01:53:52;;;;;;;2.60;0.98;;;1.00;99.90;;;;;;6315751;22;20066;-83
2021/12/09 01:56:23;;;;;;;1.85;1.27;;;0.90;99.90;;;;;;6288609;22;20358;-83
2021/12/09 01:58:50;;;;;;;0.95;0.93;;;0.90;99.90;;;;;;6289098;22;20065;-83
2021/12/09 02:01:16;;;;;;;0.40;0.40;;;0.80;99.90;;;;;;6315664;22;20017;-82
2021/12/09 02:03:42;;;;;;;1.05;0.60;;;0.80;99.90;;;;;;6288980;22;20004;-82
2021/12/09 02:06:08;;;;;;;1.27;1.00;;;0.80;99.90;;;;;;6288791;22;20153;-82
2021/12/09 02:08:33;;;;;;;3.13;1.02;;;0.80;99.90;;;;;;6315274;22;20345;-82
2021/12/09 02:10:59;;;;;;;0.80;0.77;;;0.70;99.90;;;;;;6288911;22;20013;-82
2021/12/09 02:13:25;;;;;;;0.57;0.57;;;0.70;99.90;;;;;;6314817;22;20091;-83
2021/12/09 02:15:55;;;;;;;9.43;4.60;;;0.70;99.90;;;;;;6288874;22;20013;-83
2021/12/09 02:18:21;;;;;;;2.20;2.05;;;0.70;99.90;;;;;;6315163;22;20077;-83
2021/12/09 02:21:07;;;;;;;0.77;0.77;;;0.70;99.90;;;;;;6315711;22;20017;-83
2021/12/09 02:23:33;;;;;;;0.82;0.68;;;0.60;99.90;;;;;;6288948;22;20053;-83
2021/12/09 02:25:59;;;;;;;2.08;0.90;;;0.70;99.90;;;;;;6314810;22;20016;-83
2021/12/09 02:28:26;;;;;;;1.02;1.00;;;0.70;99.90;;;;;;6158734;22;20096;-83
2021/12/09 02:30:52;;;;;;;0.52;0.52;;;0.80;99.90;;;;;;6288696;22;20023;-83
2021/12/09 02:33:18;;;;;;;1.25;1.15;;;0.70;99.90;;;;;;6314781;22;20020;-83
2021/12/09 02:35:44;;;;;;;1.00;0.93;;;0.70;99.90;;;;;;6289011;22;20089;-83
2021/12/09 02:38:10;;;;;;;0.93;0.85;;;0.70;99.90;;;;;;6288513;22;20020;-83
2021/12/09 02:40:36;;;;;;;2.63;1.83;;;0.70;99.90;;;;;;6288543;22;20004;-83
2021/12/09 02:43:04;;;;;;;1.05;0.98;;;0.70;99.90;;;;;;6315036;22;20107;-83
2021/12/09 02:45:30;;;;;;;1.35;0.90;;;0.70;99.90;;;;;;6289674;22;20004;-83
2021/12/09 02:47:56;;;;;;;1.73;1.63;;;0.70;99.90;;;;;;6288845;22;20052;-83
2021/12/09 02:50:21;;;;;;;0.95;0.85;;;0.70;99.90;;;;;;6288658;22;20093;-83
2021/12/09 02:52:48;;;;;;;2.15;1.30;;;0.70;99.90;;;;;;6289249;22;20024;-83
2021/12/09 02:55:15;;;;;;;0.50;0.50;;;0.60;99.90;;;;;;6158767;22;20013;-83
2021/12/09 02:57:42;;;;;;;0.40;0.40;;;0.60;99.90;;;;;;6288067;22;20065;-83
2021/12/09 03:00:10;;;;;;;1.38;1.27;;;0.60;99.90;;;;;;6288523;22;20009;-83
2021/12/09 03:02:36;;;;;;;0.63;0.63;;;0.50;99.90;;;;;;6288874;22;20017;-83
2021/12/09 03:05:06;;;;;;;0.90;0.90;;;0.50;99.90;;;;;;6158568;22;20040;-82
2021/12/09 03:07:39;;;;;;;0.60;0.60;;;0.50;99.90;;;;;;6288351;22;20024;-83
2021/12/09 03:10:21;;;;;;;0.50;0.50;;;0.50;99.90;;;;;;6288576;22;20378;-83
2021/12/09 03:12:53;;;;;;;0.77;0.77;;;0.50;99.90;;;;;;6315172;22;20016;-83
2021/12/09 03:15:20;;;;;;;0.80;0.73;;;0.40;99.90;;;;;;6183310;22;20019;-83
2021/12/09 03:17:47;;;;;;;6.18;4.25;;;0.40;99.90;;;;;;6314851;22;20040;-83
2021/12/09 03:20:14;;;;;;;0.68;0.68;;;0.40;99.90;;;;;;6158387;22;20009;-83
2021/12/09 03:22:41;;;;;;;1.50;1.23;;;0.40;99.90;;;;;;6288684;22;20183;-83
2021/12/09 03:25:09;;;;;;;1.40;0.82;;;0.40;99.90;;;;;;6183563;23;20095;-83
2021/12/09 03:27:35;;;;;;;0.50;0.50;;;0.40;99.90;;;;;;6159549;22;20110;-82
2021/12/09 03:30:00;;;;;;;3.70;3.50;;;0.40;99.90;;;;;;6290314;22;20013;-83
2021/12/09 03:32:26;;;;;;;0.85;0.70;;;0.40;99.90;;;;;;6291074;22;20019;-82
2021/12/09 03:34:52;;;;;;;0.50;0.50;;;0.40;99.90;;;;;;6290582;22;20013;-83
2021/12/09 03:37:20;;;;;;;0.60;0.60;;;0.40;99.90;;;;;;6316168;22;20028;-83
2021/12/09 03:39:47;;;;;;;0.70;0.70;;;0.40;99.90;;;;;;6290306;22;20013;-83
2021/12/09 03:42:15;;;;;;;0.80;0.80;;;0.40;99.90;;;;;;6316443;22;20019;-83
2021/12/09 03:44:43;;;;;;;1.48;0.90;;;0.40;99.90;;;;;;6290201;22;20032;-83
2021/12/09 03:47:11;;;;;;;0.60;0.60;;;0.40;99.90;;;;;;6289712;22;20017;-83
2021/12/09 03:49:38;;;;;;;0.60;0.60;;;0.40;99.90;;;;;;6290180;22;20012;-83
2021/12/09 03:52:05;;;;;;;0.50;0.50;;;0.30;99.90;;;;;;6291010;22;20009;-83
2021/12/09 03:54:31;;;;;;;0.50;0.50;;;0.30;99.90;;;;;;6290416;22;20438;-83
2021/12/09 03:56:57;;;;;;;2.15;1.23;;;0.30;99.90;;;;;;6290125;22;20013;-83
2021/12/09 03:59:22;;;;;;;2.92;0.93;;;0.30;99.90;;;;;;6290047;22;20031;-83
2021/12/09 04:01:48;;;;;;;0.52;0.52;;;0.30;99.90;;;;;;6290060;22;20457;-82
2021/12/09 04:04:15;;;;;;;0.80;0.80;;;0.30;99.90;;;;;;6289987;22;20012;-83
2021/12/09 04:06:41;;;;;;;1.42;1.33;;;0.30;99.90;;;;;;6290354;22;20013;-82
2021/12/09 04:09:11;;;;;;;0.75;0.75;;;0.30;99.90;;;;;;6290050;22;20065;-82
2021/12/09 04:11:37;;;;;;;0.60;0.60;;;0.30;99.90;;;;;;6159696;22;20051;-82
2021/12/09 04:14:04;;;;;;;2.45;1.88;;;0.20;99.90;;;;;;6184339;22;20012;-83
2021/12/09 04:16:30;;;;;;;0.98;0.90;;;0.20;99.90;;;;;;6289596;22;20101;-83
2021/12/09 04:18:56;;;;;;;0.85;0.80;;;0.20;99.90;;;;;;6315822;22;20042;-83
2021/12/09 04:21:22;;;;;;;0.50;0.50;;;0.20;99.90;;;;;;6289800;22;20016;-82
2021/12/09 04:23:48;;;;;;;1.20;0.88;;;0.20;99.90;;;;;;6315861;22;20400;-82
2021/12/09 04:26:13;;;;;;;0.50;0.50;;;0.20;99.90;;;;;;6315877;22;20442;-83
2021/12/09 04:28:40;;;;;;;0.40;0.40;;;0.20;99.90;;;;;;6289724;22;20027;-83
2021/12/09 04:31:06;;;;;;;4.07;3.67;;;0.20;99.90;;;;;;6316301;22;20017;-83
2021/12/09 04:33:32;;;;;;;0.75;0.75;;;0.20;99.90;;;;;;6290186;22;20065;-83
2021/12/09 04:35:58;;;;;;;0.50;0.50;;;0.20;99.90;;;;;;6315710;22;20549;-83
2021/12/09 04:38:25;;;;;;;0.75;0.75;;;0.20;99.90;;;;;;6289533;22;20044;-83
2021/12/09 04:40:51;;;;;;;0.70;0.70;;;0.20;99.90;;;;;;6315806;22;20017;-82
2021/12/09 04:43:17;;;;;;;1.10;0.75;;;0.20;99.90;;;;;;6289811;22;20009;-83
2021/12/09 04:45:42;;;;;;;0.88;0.88;;;0.30;99.90;;;;;;6289703;22;20019;-83
2021/12/09 04:48:08;;;;;;;1.48;1.15;;;0.30;99.90;;;;;;6315657;22;20020;-82
2021/12/09 04:50:36;;;;;;;6.68;1.05;;;0.30;99.90;;;;;;6289643;22;20021;-83
2021/12/09 04:53:02;;;;;;;0.70;0.70;;;0.30;99.90;;;;;;6289647;22;20009;-83
2021/12/09 04:55:28;;;;;;;2.30;1.35;;;0.30;99.90;;;;;;6289743;22;20013;-82
2021/12/09 04:57:53;;;;;;;0.40;0.40;;;0.30;99.90;;;;;;6289624;22;20042;-83
2021/12/09 05:00:23;;;;;;;1.63;0.93;;;0.30;99.90;;;;;;6290271;22;20100;-83
2021/12/09 05:05:21;;;;;;;2.05;1.33;;;0.20;99.90;;;;;;6315362;22;20392;-83
2021/12/09 05:07:48;;;;;;;1.27;0.90;;;0.20;99.90;;;;;;6158856;22;20016;-83
2021/12/09 05:10:16;;;;;;;0.80;0.80;;;0.20;99.90;;;;;;6289945;22;20020;-83
2021/12/09 05:12:42;;;;;;;0.50;0.50;;;0.20;99.90;;;;;;6159328;22;20013;-83
2021/12/09 05:15:08;;;;;;;1.33;1.17;;;0.20;99.90;;;;;;6159159;22;20016;-83
2021/12/09 05:17:34;;;;;;;0.70;0.70;;;0.20;99.90;;;;;;6289134;22;20017;-83
2021/12/09 05:20:00;;;;;;;1.30;0.95;;;0.10;99.90;;;;;;6315364;22;20016;-83
2021/12/09 05:22:26;;;;;;;0.85;0.80;;;0.10;99.90;;;;;;6159213;22;20019;-83
2021/12/09 05:24:52;;;;;;;0.70;0.70;;;0.10;99.90;;;;;;6289426;22;20461;-82
2021/12/09 05:27:18;;;;;;;1.30;1.20;;;0.10;99.90;;;;;;6289046;22;20062;-83
2021/12/09 05:29:44;;;;;;;0.50;0.50;;;0.10;99.90;;;;;;6289717;22;20353;-82
2021/12/09 05:32:12;;;;;;;0.73;0.70;;;0.00;99.90;;;;;;6315397;22;20012;-83
2021/12/09 05:34:49;;;;;;;0.60;0.60;;;0.00;99.90;;;;;;6315150;22;20019;-83
2021/12/09 05:37:18;;;;;;;0.77;0.77;;;0.10;99.90;;;;;;6288557;22;20150;-82
2021/12/09 05:39:46;;;;;;;1.92;1.15;;;0.00;99.90;;;;;;6315375;22;20494;-82
2021/12/09 05:42:13;;;;;;;1.70;1.38;;;0.00;99.90;;;;;;6288820;22;20027;-82
2021/12/09 05:44:39;;;;;;;0.95;0.90;;;0.00;99.90;;;;;;6288802;22;20553;-82
2021/12/09 05:47:09;;;;;;;2.35;1.17;;;0.00;99.90;;;;;;6315640;22;20472;-82
2021/12/09 05:49:40;;;;;;;0.73;0.68;;;0.00;99.90;;;;;;6315081;22;20100;-82
2021/12/09 05:52:06;;;;;;;1.05;0.95;;;0.00;99.90;;;;;;6288955;22;20015;-83
2021/12/09 05:54:33;;;;;;;1.15;1.05;;;0.10;99.90;;;;;;6289374;22;20047;-82
2021/12/09 05:56:58;;;;;;;0.65;0.65;;;0.00;99.90;;;;;;6288225;22;20032;-82
2021/12/09 05:59:25;;;;;;;1.92;1.73;;;0.10;99.90;;;;;;6288651;22;20088;-83
2021/12/09 06:01:51;;;;;;;0.85;0.80;;;0.00;99.90;;;;;;6289611;22;20008;-82
2021/12/09 06:04:17;;;;;;;1.67;1.35;;;0.00;99.90;;;;;;6315814;22;20015;-82
2021/12/09 06:06:43;;;;;;;1.15;1.05;;;0.00;99.90;;;;;;6314751;22;20013;-82
2021/12/09 06:09:11;;;;;;;1.17;0.90;;;0.00;99.90;;;;;;6288871;22;20059;-82
2021/12/09 06:11:38;;;;;;;7.05;1.23;;;0.00;99.90;;;;;;6289137;22;20389;-83
2021/12/09 06:14:05;;;;;;;0.98;0.90;;;0.10;99.90;;;;;;6289590;22;20020;-82
2021/12/09 06:16:31;;;;;;;1.67;1.23;;;0.10;99.90;;;;;;6315393;22;20054;-83
2021/12/09 06:18:57;;;;;;;0.95;0.80;;;0.10;99.90;;;;;;6288553;22;20013;-82
2021/12/09 06:21:24;;;;;;;17.20;1.73;;;0.10;99.90;;;;;;6288804;22;20009;-83
2021/12/09 06:23:50;;;;;;;4.80;2.55;;;0.10;99.90;;;;;;6315375;22;20013;-82
2021/12/09 06:26:15;;;;;;;4.57;2.92;;;0.10;99.90;;;;;;6314713;22;20446;-82
2021/12/09 06:28:41;;;;;;;1.50;1.05;;;0.20;99.90;;;;;;6288691;22;20070;-83
2021/12/09 06:31:07;;;;;;;1.73;0.93;;;0.20;99.90;;;;;;6288872;22;20024;-83
2021/12/09 06:33:33;;;;;;;1.20;1.10;;;0.20;99.90;;;;;;6288545;22;20013;-83
2021/12/09 06:35:59;;;;;;;5.45;2.97;;;0.20;99.90;;;;;;6288727;22;20059;-82
2021/12/09 06:38:25;;;;;;;2.30;1.52;;;0.20;99.90;;;;;;6288392;22;20083;-82
2021/12/09 06:40:51;;;;;;;4.05;2.75;;;0.20;99.90;;;;;;6314887;22;20298;-82
2021/12/09 06:43:17;;;;;;;3.45;1.88;;;0.20;99.90;;;;;;6288891;22;20055;-82
2021/12/09 06:45:44;;;;;;;3.17;1.77;;;1.10;99.90;;;;;;6288947;22;20053;-82
2021/12/09 06:48:10;;;;;;;4.15;1.80;;;0.30;99.90;;;;;;6288339;22;20013;-83
2021/12/09 06:50:36;;;;;;;2.38;1.75;;;0.20;99.90;;;;;;6314761;22;20017;-82
2021/12/09 06:53:02;;;;;;;0.82;0.82;;;0.20;99.90;;;;;;6288498;22;20012;-83
2021/12/09 06:55:28;;;;;;;3.90;1.48;;;0.20;99.90;;;;;;6288276;22;20066;-83
2021/12/09 06:57:54;;;;;;;2.22;1.83;;;0.20;99.90;;;;;;6288444;22;20016;-82
2021/12/09 07:00:23;;;;;;;3.85;1.90;;;0.20;99.90;;;;;;6290173;22;20024;-82
2021/12/09 07:02:49;;;;;;;6.28;2.42;;;0.20;99.90;;;;;;6290422;22;20017;-82
2021/12/09 07:05:17;;;;;;;2.92;1.83;;;0.20;99.90;;;;;;6290483;22;20040;-82
2021/12/09 07:07:43;;;;;;;5.20;2.47;;;0.30;99.90;;;;;;6159533;22;20428;-82
2021/12/09 07:10:10;;;;;;;5.15;2.85;;;0.30;99.90;;;;;;6290554;22;20016;-83
2021/12/09 07:12:38;;;;;;;8.13;3.95;;;0.30;99.90;;;;;;6291287;22;20013;-82
2021/12/09 07:15:05;;;;;;;10.02;2.05;;;0.30;99.90;;;;;;6291124;22;20051;-82
2021/12/09 07:17:31;;;;;;;5.80;1.80;;;0.40;99.90;;;;;;6290056;22;20104;-83
2021/12/09 07:19:56;;;;;;;2.90;1.75;;;0.40;99.90;;;;;;6290352;22;20040;-83
2021/12/09 07:22:22;;;;;;;1.42;1.15;;;0.50;99.90;;;;;;6316344;22;20013;-83
2021/12/09 07:24:48;;;;;;;4.95;2.55;;;0.50;99.90;;;;;;6290230;22;20057;-83
2021/12/09 07:27:13;;;;;;;3.85;2.38;;;0.50;99.90;;;;;;6290364;22;20123;-83
2021/12/09 07:29:39;;;;;;;4.78;3.13;;;0.50;99.90;;;;;;6290154;22;20468;-82
2021/12/09 07:32:05;;;;;;;1.60;1.50;;;0.50;99.90;;;;;;6290409;22;20067;-82
2021/12/09 07:34:31;;;;;;;3.50;2.70;;;0.60;99.90;;;;;;6159715;22;20016;-83
2021/12/09 07:37:02;;;;;;;5.47;3.08;;;0.50;99.90;;;;;;6290104;22;20012;-83
2021/12/09 07:39:28;;;;;;;5.53;3.42;;;0.60;99.90;;;;;;6290604;22;20009;-83
2021/12/09 07:41:56;;;;;;;4.40;2.58;;;0.60;99.90;;;;;;6316165;22;20008;-83
2021/12/09 07:44:22;;;;;;;7.25;2.85;;;0.70;99.90;;;;;;6290742;22;20005;-83
2021/12/09 07:46:48;;;;;;;2.78;1.88;;;0.70;99.90;;;;;;6290372;22;20017;-82
2021/12/09 07:49:15;;;;;;;9.00;2.33;;;0.70;99.90;;;;;;6315988;22;20016;-82
2021/12/09 07:51:41;;;;;;;10.95;2.72;;;0.80;99.90;;;;;;6290218;22;20017;-82
2021/12/09 07:54:07;;;;;;;4.40;2.70;;;0.80;99.90;;;;;;6316562;22;20009;-83
2021/12/09 07:56:32;;;;;;;3.97;2.30;;;0.80;99.90;;;;;;6290121;22;20024;-83
2021/12/09 07:58:58;;;;;;;2.63;2.28;;;0.80;99.90;;;;;;6316012;22;20024;-83
2021/12/09 08:01:24;;;;;;;5.63;2.95;;;0.80;99.90;;;;;;6290145;22;20051;-82
2021/12/09 08:03:49;;;;;;;2.80;1.88;;;0.90;99.90;;;;;;6316130;22;20012;-82
2021/12/09 08:06:15;;;;;;;3.60;1.95;;;0.80;99.90;;;;;;6315801;22;20016;-83
2021/12/09 08:08:41;;;;;;;6.80;2.67;;;0.90;99.90;;;;;;6159465;22;20030;-83
2021/12/09 08:11:07;;;;;;;3.38;2.05;;;0.90;99.90;;;;;;6316129;22;20048;-83
2021/12/09 08:13:34;;;;;;;2.75;2.08;;;0.90;99.90;;;;;;6290217;22;20013;-83
2021/12/09 08:16:00;;;;;;;3.53;2.22;;;0.90;99.90;;;;;;6289903;22;20403;-83
2021/12/09 08:18:27;;;;;;;2.35;1.70;;;0.90;99.90;;;;;;6184019;23;20013;-82
2021/12/09 08:20:59;;;;;;;5.25;2.00;;;0.90;99.90;;;;;;6289721;22;20023;-83
2021/12/09 08:23:26;;;;;;;1.83;1.17;;;0.90;99.90;;;;;;6159378;22;20088;-83
2021/12/09 08:25:52;;;;;;;2.00;1.50;;;0.90;99.90;;;;;;6290305;22;20016;-83
2021/12/09 08:28:19;;;;;;;3.10;1.65;;;0.90;99.90;;;;;;6315775;22;20048;-83
2021/12/09 08:30:45;;;;;;;4.68;2.35;;;0.90;99.90;;;;;;6289733;22;20057;-83
2021/12/09 08:33:10;;;;;;;1.48;0.95;;;0.90;99.90;;;;;;6184338;22;20387;-82
2021/12/09 08:35:37;;;;;;;6.03;2.95;;;0.90;99.90;;;;;;6290086;22;20021;-83
2021/12/09 08:38:05;;;;;;;2.70;1.30;;;0.90;99.90;;;;;;6315225;22;20052;-83
2021/12/09 08:40:31;;;;;;;2.45;1.27;;;1.00;99.90;;;;;;6289567;22;20008;-82
2021/12/09 08:42:57;;;;;;;0.93;0.90;;;1.10;99.90;;;;;;6315484;22;20097;-83
2021/12/09 08:45:23;;;;;;;0.70;0.70;;;1.50;99.90;;;;;;6183975;23;20013;-83
2021/12/09 08:47:49;;;;;;;0.82;0.80;;;1.00;99.90;;;;;;6183906;23;20028;-82
2021/12/09 08:50:20;;;;;;;3.50;2.15;;;1.00;99.90;;;;;;6289549;22;20044;-82
2021/12/09 08:52:51;;;;;;;0.75;0.68;;;1.00;99.90;;;;;;6289842;22;20013;-83
2021/12/09 08:55:17;;;;;;;0.50;0.50;;;1.00;99.90;;;;;;6289490;22;20024;-83
2021/12/09 08:57:43;;;;;;;0.70;0.70;;;1.00;99.90;;;;;;6288975;22;20017;-83
2021/12/09 09:00:13;;;;;;;0.63;0.63;;;1.00;99.90;;;;;;6315184;22;20024;-83
2021/12/09 09:02:42;;;;;;;1.48;1.35;;;1.00;99.90;;;;;;6289661;22;20024;-82
2021/12/09 09:05:11;;;;;;;1.02;0.93;;;1.00;99.90;;;;;;6289788;22;20015;-82
2021/12/09 09:07:38;;;;;;;0.60;0.60;;;1.10;99.90;;;;;;6183858;22;20017;-83
2021/12/09 09:10:05;;;;;;;1.25;1.13;;;1.10;99.90;;;;;;6289999;22;20016;-83
2021/12/09 09:12:33;;;;;;;0.70;0.70;;;1.10;99.90;;;;;;6290102;22;20031;-83
2021/12/09 09:14:59;;;;;;;0.60;0.60;;;1.10;99.90;;;;;;6289772;22;20012;-83
2021/12/09 09:17:25;;;;;;;1.00;1.00;;;1.10;99.90;;;;;;6288964;22;20016;-83
2021/12/09 09:19:50;;;;;;;0.60;0.60;;;1.10;99.90;;;;;;6289260;22;20350;-83
2021/12/09 09:22:16;;;;;;;0.80;0.80;;;1.20;99.90;;;;;;6288773;22;20009;-83
2021/12/09 09:24:41;;;;;;;2.55;2.35;;;1.20;99.90;;;;;;6315730;22;20019;-83
2021/12/09 09:27:07;;;;;;;1.20;0.88;;;1.20;99.90;;;;;;6289116;22;20005;-83
2021/12/09 09:29:34;;;;;;;0.60;0.60;;;1.20;99.90;;;;;;6315141;22;20384;-83
2021/12/09 09:32:01;;;;;;;0.60;0.60;;;1.30;99.90;;;;;;6289271;22;20013;-82
2021/12/09 09:34:26;;;;;;;0.57;0.57;;;1.30;99.90;;;;;;6289462;22;20031;-83
2021/12/09 09:36:52;;;;;;;2.00;1.02;;;1.30;99.90;;;;;;6315041;22;20017;-82
2021/12/09 09:39:19;;;;;;;0.60;0.60;;;1.30;99.90;;;;;;6289258;22;20350;-82
2021/12/09 09:41:59;;;;;;;0.60;0.60;;;1.40;99.90;;;;;;6289860;22;20016;-83
2021/12/09 09:44:34;;;;;;;2.50;1.60;;;1.40;99.90;;;;;;6314021;22;20008;-83
2021/12/09 09:47:02;;;;;;;2.47;2.10;;;1.40;99.90;;;;;;6289517;22;20008;-83
2021/12/09 09:49:30;;;;;;;0.85;0.85;;;1.50;99.90;;;;;;6289102;22;20171;-83
2021/12/09 09:51:57;;;;;;;2.90;1.50;;;1.50;99.90;;;;;;6289319;22;20039;-83
2021/12/09 09:54:25;;;;;;;1.73;0.98;;;1.60;99.90;;;;;;6289067;22;20017;-83
2021/12/09 09:56:51;;;;;;;1.08;0.98;;;1.60;99.90;;;;;;6288687;22;20035;-82
2021/12/09 09:59:17;;;;;;;1.15;1.05;;;1.60;99.90;;;;;;6289142;22;20021;-83
2021/12/09 10:01:45;;;;;;;1.35;1.00;;;1.60;99.90;;;;;;6289676;22;20383;-83
2021/12/09 10:04:20;;;;;;;3.10;1.67;;;1.60;99.90;;;;;;6314927;22;20091;-82
2021/12/09 10:06:48;;;;;;;0.80;0.80;;;1.70;99.90;;;;;;6289306;22;20016;-82
2021/12/09 10:09:16;;;;;;;4.25;1.85;;;1.70;99.90;;;;;;6289011;22;20093;-82
2021/12/09 10:11:42;;;;;;;1.42;0.93;;;1.80;99.90;;;;;;6315614;22;20023;-83
2021/12/09 10:14:20;;;;;;;1.33;1.23;;;1.80;99.90;;;;;;6158802;22;20099;-83
2021/12/09 10:16:59;;;;;;;1.27;1.17;;;1.90;99.90;;;;;;6287524;22;20085;-82
2021/12/09 10:19:24;;;;;;;1.13;1.05;;;1.90;99.90;;;;;;6288624;22;20023;-82
2021/12/09 10:22:07;;;;;;;1.20;1.00;;;1.90;99.90;;;;;;6288219;22;20360;-82
2021/12/09 10:24:33;;;;;;;4.03;1.42;;;2.00;99.90;;;;;;6287808;22;20040;-82
2021/12/09 10:26:59;;;;;;;3.58;2.45;;;2.10;99.90;;;;;;6288986;22;20062;-82
2021/12/09 10:29:34;;;;;;;1.63;1.33;;;2.10;99.90;;;;;;6288765;22;20453;-82
2021/12/09 10:32:08;;;;;;;3.03;1.42;;;2.10;99.90;;;;;;6158830;22;20016;-82
2021/12/09 10:34:41;;;;;;;2.72;2.05;;;2.20;99.90;;;;;;6288928;22;20055;-82
2021/12/09 10:37:20;;;;;;;1.15;0.98;;;2.20;99.90;;;;;;6314867;22;20017;-82
2021/12/09 10:39:50;;;;;;;1.50;1.25;;;2.30;99.90;;;;;;6315437;22;20013;-82
2021/12/09 10:42:24;;;;;;;1.30;0.85;;;2.30;99.90;;;;;;6314840;22;20130;-82
2021/12/09 10:44:54;;;;;;;3.42;1.05;;;2.40;99.90;;;;;;6246253;22;20009;-82
2021/12/09 10:50:28;;;;;;;8.07;2.38;;;2.40;99.90;;;;;;6315048;22;20016;-82
2021/12/09 10:53:01;;;;;;;5.15;2.22;;;2.50;99.90;;;;;;6183221;23;20008;-82
2021/12/09 10:55:37;;;;;;;6.07;2.28;;;2.50;99.90;;;;;;6263948;22;20005;-83
2021/12/09 10:58:09;;;;;;;1.55;1.35;;;2.60;99.90;;;;;;6287856;22;20069;-83
2021/12/09 11:00:40;;;;;;;5.30;2.28;;;2.60;99.90;;;;;;6288974;22;20371;-82
2021/12/09 11:03:29;;;;;;;5.72;2.63;;;2.60;99.90;;;;;;6288638;22;20015;-83
2021/12/09 11:06:02;;;;;;;6.03;2.65;;;2.60;99.90;;;;;;6288569;22;20004;-82
2021/12/09 11:08:34;;;;;;;17.60;5.07;;;2.60;99.90;;;;;;6288347;22;20024;-82
2021/12/09 11:11:17;;;;;;;7.68;3.38;;;2.70;99.90;;;;;;6288520;22;20338;-82
2021/12/09 11:13:52;;;;;;;10.70;3.33;;;2.60;99.90;;;;;;6288456;22;20096;-82
2021/12/09 11:16:28;;;;;;;;;;;2.60;99.90;;;;;;6158676;23;20453;-82
2021/12/09 11:19:38;;;;;;;3.75;2.42;;;2.70;99.90;;;;;;6288618;22;19923;-82
2021/12/09 11:22:10;;;;;;;6.28;3.65;;;2.70;99.90;;;;;;6299624;22;20379;-82
2021/12/09 11:24:42;;;;;;;10.25;4.93;;;2.70;99.90;;;;;;6315012;22;20005;-82
2021/12/09 11:27:13;;;;;;;13.07;2.78;;;2.80;99.90;;;;;;6314772;22;20013;-82
2021/12/09 11:29:49;;;;;;;10.13;5.53;;;2.60;99.90;;;;;;6288922;22;20088;-82
2021/12/09 11:32:41;;;;;;;4.60;3.15;;;2.70;99.90;;;;;;6288615;22;20095;-82
2021/12/09 11:35:24;;;;;;;2.95;2.28;;;2.70;99.90;;;;;;6288633;22;20013;-82
2021/12/09 11:40:33;;;;;;;4.10;2.65;;;2.70;99.90;;;;;;6314468;22;20020;-82
2021/12/09 11:43:02;;;;;;;6.05;3.20;;;2.70;99.90;;;;;;6315187;22;20476;-83
2021/12/09 11:45:31;;;;;;;4.60;3.00;;;2.80;99.90;;;;;;6288354;22;20020;-82
2021/12/09 11:47:57;;;;;;;3.40;2.08;;;2.70;99.90;;;;;;6290558;22;20048;-82
2021/12/09 11:50:28;;;;;;;7.05;3.15;;;2.70;99.90;;;;;;6315772;22;20013;-82
2021/12/09 11:52:56;;;;;;;2.33;1.70;;;2.70;99.90;;;;;;6290230;22;20433;-82
2021/12/09 11:55:32;;;;;;;3.85;2.30;;;2.80;99.90;;;;;;6289762;22;20016;-82
2021/12/09 11:58:06;;;;;;;2.88;2.03;;;2.80;99.90;;;;;;6315914;22;20013;-82
2021/12/09 12:15:33;;;;;;;6.55;3.55;;;3.00;99.90;;;;;;6316253;22;20025;-83
2021/12/09 12:21:03;;;;;;;6.88;4.55;;;3.00;99.90;;;;;;6184253;23;20480;-83
2021/12/09 12:26:48;;;;;;;5.78;3.20;;;3.00;99.90;;;;;;6315627;22;20017;-83
2021/12/09 12:32:11;;;;;;;2.63;1.63;;;3.10;99.90;;;;;;6184056;22;20021;-83
2021/12/09 12:41:01;;;;;;;6.07;3.30;;;3.10;99.90;;;;;;6314643;22;20096;-83
2021/12/09 12:44:05;;;;;;;4.93;2.60;;;3.10;99.90;;;;;;6287028;22;20016;-83
2021/12/09 12:46:58;;;;;;;5.22;3.40;;;3.20;99.90;;;;;;6210624;22;20036;-83
2021/12/09 12:52:12;;;;;;;3.75;2.50;;;3.20;99.90;;;;;;6313912;22;20469;-83
2021/12/09 12:54:50;;;;;;;8.02;3.20;;;3.30;99.90;;;;;;6288101;22;20012;-83
2021/12/09 12:57:34;;;;;;;4.60;2.20;;;3.30;99.90;;;;;;6313509;22;20441;-83
2021/12/09 13:00:07;;;;;;;4.97;3.28;;;3.30;99.90;;;;;;6157928;22;20017;-83
2021/12/09 13:03:19;;;;;;;5.72;3.40;;;3.30;99.90;;;;;;6288184;22;20062;-83
2021/12/09 13:13:49;;;;;;;6.60;2.80;;;3.40;99.90;;;;;;6313833;22;20028;-84
2021/12/09 13:21:41;;;;;;;6.03;3.35;;;3.50;99.90;;;;;;6313960;22;20024;-83
2021/12/09 13:27:21;;;;;;;1.05;0.95;;;3.50;99.90;;;;;;6286245;22;20016;-83
2021/12/09 13:36:19;;;;;;;5.07;2.40;;;3.50;99.90;;;;;;6182084;23;20028;-83
2021/12/09 13:47:24;;;;;;;7.05;3.33;;;3.50;99.90;;;;;;6316120;22;20019;-83
2021/12/09 13:55:15;;;;;;;1.85;1.50;;;3.40;99.90;;;;;;6315886;22;20017;-83
2021/12/09 13:57:47;;;;;;;10.87;4.90;;;3.50;99.90;;;;;;6314897;22;20099;-83
2021/12/09 14:00:24;;;;;;;1.27;1.17;;;3.50;99.90;;;;;;6314700;22;20252;-82
2021/12/09 14:02:52;;;;;;;5.53;2.92;;;3.50;99.90;;;;;;6288788;22;20023;-82
2021/12/09 14:05:18;;;;;;;3.83;1.70;;;3.50;99.90;;;;;;6288664;22;20008;-83
2021/12/09 14:07:59;;;;;;;5.15;3.13;;;3.50;99.90;;;;;;6158704;22;20012;-83
2021/12/09 14:10:28;;;;;;;3.88;1.85;;;3.50;99.90;;;;;;6289240;22;20051;-83
2021/12/09 14:13:01;;;;;;;4.85;2.95;;;3.50;99.90;;;;;;6314909;22;20067;-83
2021/12/09 14:16:01;;;;;;;2.90;2.03;;;3.50;99.90;;;;;;6315456;22;20016;-82
2021/12/09 14:18:37;;;;;;;9.30;4.72;;;3.50;99.90;;;;;;6183539;22;20017;-82
2021/12/09 14:21:03;;;;;;;4.40;1.67;;;3.50;99.90;;;;;;6315184;22;20028;-83
2021/12/09 14:23:28;;;;;;;3.40;2.22;;;3.50;99.90;;;;;;6288724;22;20017;-82